sensor_id;sensor_type;location;lat;lon;timestamp;P1;durP1;ratioP1;P2;durP2;ratioP2
50585;SDS011;36542;51.700;8.846;2024-03-17T00:02:17;7.90;;;3.37;;
50585;SDS011;36542;51.700;8.846;2024-03-17T00:04:44;12.30;;;3.60;;
50585;SDS011;36542;51.700;8.846;2024-03-17T00:07:10;6.03;;;3.53;;
50585;SDS011;36542;51.700;8.846;2024-03-17T00:09:36;7.07;;;3.60;;
50585;SDS011;36542;51.700;8.846;2024-03-17T00:12:02;9.93;;;3.70;;
50585;SDS011;36542;51.700;8.846;2024-03-17T00:14:28;5.20;;;3.37;;
50585;SDS011;36542;51.700;8.846;2024-03-17T00:16:54;6.27;;;3.43;;
50585;SDS011;36542;51.700;8.846;2024-03-17T00:19:19;8.10;;;3.80;;
50585;SDS011;36542;51.700;8.846;2024-03-17T00:21:47;9.43;;;5.10;;
50585;SDS011;36542;51.700;8.846;2024-03-17T00:24:15;6.40;;;3.80;;
50585;SDS011;36542;51.700;8.846;2024-03-17T00:26:41;5.67;;;3.30;;
50585;SDS011;36542;51.700;8.846;2024-03-17T00:29:07;5.87;;;3.83;;
50585;SDS011;36542;51.700;8.846;2024-03-17T00:31:33;8.20;;;3.33;;
50585;SDS011;36542;51.700;8.846;2024-03-17T00:33:59;5.97;;;3.87;;
50585;SDS011;36542;51.700;8.846;2024-03-17T00:36:26;6.93;;;3.70;;
50585;SDS011;36542;51.700;8.846;2024-03-17T00:38:52;7.73;;;3.70;;
50585;SDS011;36542;51.700;8.846;2024-03-17T00:41:17;9.83;;;4.13;;
50585;SDS011;36542;51.700;8.846;2024-03-17T00:43:44;7.07;;;4.03;;
50585;SDS011;36542;51.700;8.846;2024-03-17T00:46:10;6.87;;;4.80;;
50585;SDS011;36542;51.700;8.846;2024-03-17T00:48:37;5.63;;;3.40;;
50585;SDS011;36542;51.700;8.846;2024-03-17T00:51:02;8.83;;;4.00;;
50585;SDS011;36542;51.700;8.846;2024-03-17T00:53:28;10.87;;;3.83;;
50585;SDS011;36542;51.700;8.846;2024-03-17T00:55:54;5.70;;;3.83;;
50585;SDS011;36542;51.700;8.846;2024-03-17T00:58:23;9.30;;;4.10;;
50585;SDS011;36542;51.700;8.846;2024-03-17T01:00:49;7.23;;;4.07;;
50585;SDS011;36542;51.700;8.846;2024-03-17T01:03:18;5.57;;;3.87;;
50585;SDS011;36542;51.700;8.846;2024-03-17T01:05:44;7.70;;;3.93;;
50585;SDS011;36542;51.700;8.846;2024-03-17T01:08:12;11.00;;;4.43;;
50585;SDS011;36542;51.700;8.846;2024-03-17T01:10:42;10.60;;;4.53;;
50585;SDS011;36542;51.700;8.846;2024-03-17T01:13:09;17.63;;;3.80;;
50585;SDS011;36542;51.700;8.846;2024-03-17T01:15:40;6.83;;;4.03;;
50585;SDS011;36542;51.700;8.846;2024-03-17T01:18:05;7.50;;;3.40;;
50585;SDS011;36542;51.700;8.846;2024-03-17T01:20:32;8.03;;;3.63;;
50585;SDS011;36542;51.700;8.846;2024-03-17T01:22:59;9.57;;;3.67;;
50585;SDS011;36542;51.700;8.846;2024-03-17T01:25:25;6.33;;;3.67;;
50585;SDS011;36542;51.700;8.846;2024-03-17T01:27:51;11.57;;;4.10;;
50585;SDS011;36542;51.700;8.846;2024-03-17T01:30:17;7.90;;;4.10;;
50585;SDS011;36542;51.700;8.846;2024-03-17T01:32:44;5.93;;;3.93;;
50585;SDS011;36542;51.700;8.846;2024-03-17T01:35:10;7.07;;;4.07;;
50585;SDS011;36542;51.700;8.846;2024-03-17T01:37:37;9.57;;;3.93;;
50585;SDS011;36542;51.700;8.846;2024-03-17T01:40:03;7.57;;;4.10;;
50585;SDS011;36542;51.700;8.846;2024-03-17T01:42:38;9.23;;;4.17;;
50585;SDS011;36542;51.700;8.846;2024-03-17T01:45:50;5.73;;;3.53;;
50585;SDS011;36542;51.700;8.846;2024-03-17T01:47:58;9.00;;;4.03;;
50585;SDS011;36542;51.700;8.846;2024-03-17T01:50:26;6.90;;;3.67;;
50585;SDS011;36542;51.700;8.846;2024-03-17T01:52:57;8.70;;;4.50;;
50585;SDS011;36542;51.700;8.846;2024-03-17T01:55:25;5.33;;;3.80;;
50585;SDS011;36542;51.700;8.846;2024-03-17T01:57:52;8.87;;;4.10;;
50585;SDS011;36542;51.700;8.846;2024-03-17T02:00:18;7.43;;;4.67;;
50585;SDS011;36542;51.700;8.846;2024-03-17T02:02:46;9.43;;;5.03;;
50585;SDS011;36542;51.700;8.846;2024-03-17T02:05:12;8.97;;;4.40;;
50585;SDS011;36542;51.700;8.846;2024-03-17T02:07:38;7.57;;;3.77;;
50585;SDS011;36542;51.700;8.846;2024-03-17T02:10:04;6.23;;;4.00;;
50585;SDS011;36542;51.700;8.846;2024-03-17T02:12:30;6.93;;;3.77;;
50585;SDS011;36542;51.700;8.846;2024-03-17T02:14:59;7.33;;;3.97;;
50585;SDS011;36542;51.700;8.846;2024-03-17T02:17:27;10.17;;;4.67;;
50585;SDS011;36542;51.700;8.846;2024-03-17T02:19:53;8.00;;;4.90;;
50585;SDS011;36542;51.700;8.846;2024-03-17T02:22:19;7.00;;;4.90;;
50585;SDS011;36542;51.700;8.846;2024-03-17T02:24:45;9.40;;;4.30;;
50585;SDS011;36542;51.700;8.846;2024-03-17T02:27:11;7.33;;;4.20;;
50585;SDS011;36542;51.700;8.846;2024-03-17T02:29:37;9.23;;;4.30;;
50585;SDS011;36542;51.700;8.846;2024-03-17T02:32:04;9.83;;;4.77;;
50585;SDS011;36542;51.700;8.846;2024-03-17T02:34:36;10.40;;;5.17;;
50585;SDS011;36542;51.700;8.846;2024-03-17T02:37:03;8.27;;;4.67;;
50585;SDS011;36542;51.700;8.846;2024-03-17T02:39:33;7.47;;;3.90;;
50585;SDS011;36542;51.700;8.846;2024-03-17T02:42:03;6.23;;;4.07;;
50585;SDS011;36542;51.700;8.846;2024-03-17T02:44:33;9.70;;;4.90;;
50585;SDS011;36542;51.700;8.846;2024-03-17T02:47:00;8.13;;;4.43;;
50585;SDS011;36542;51.700;8.846;2024-03-17T02:49:27;8.53;;;4.67;;
50585;SDS011;36542;51.700;8.846;2024-03-17T02:52:00;9.67;;;4.70;;
50585;SDS011;36542;51.700;8.846;2024-03-17T02:54:26;5.90;;;4.00;;
50585;SDS011;36542;51.700;8.846;2024-03-17T02:56:51;9.83;;;4.03;;
50585;SDS011;36542;51.700;8.846;2024-03-17T02:59:17;10.73;;;4.43;;
50585;SDS011;36542;51.700;8.846;2024-03-17T03:01:43;8.53;;;4.07;;
50585;SDS011;36542;51.700;8.846;2024-03-17T03:04:10;12.30;;;4.50;;
50585;SDS011;36542;51.700;8.846;2024-03-17T03:06:36;7.93;;;4.13;;
50585;SDS011;36542;51.700;8.846;2024-03-17T03:09:03;8.63;;;4.37;;
50585;SDS011;36542;51.700;8.846;2024-03-17T03:11:31;9.53;;;4.90;;
50585;SDS011;36542;51.700;8.846;2024-03-17T03:13:56;7.43;;;4.50;;
50585;SDS011;36542;51.700;8.846;2024-03-17T03:16:22;6.67;;;4.00;;
50585;SDS011;36542;51.700;8.846;2024-03-17T03:18:48;6.33;;;4.17;;
50585;SDS011;36542;51.700;8.846;2024-03-17T03:21:15;9.30;;;4.40;;
50585;SDS011;36542;51.700;8.846;2024-03-17T03:23:42;6.73;;;4.60;;
50585;SDS011;36542;51.700;8.846;2024-03-17T03:26:11;7.57;;;4.43;;
50585;SDS011;36542;51.700;8.846;2024-03-17T03:28:37;8.10;;;4.50;;
50585;SDS011;36542;51.700;8.846;2024-03-17T03:31:03;9.53;;;4.53;;
50585;SDS011;36542;51.700;8.846;2024-03-17T03:33:29;11.57;;;5.20;;
50585;SDS011;36542;51.700;8.846;2024-03-17T03:35:55;11.40;;;5.60;;
50585;SDS011;36542;51.700;8.846;2024-03-17T03:38:21;10.27;;;5.40;;
50585;SDS011;36542;51.700;8.846;2024-03-17T03:40:47;8.57;;;5.30;;
50585;SDS011;36542;51.700;8.846;2024-03-17T03:43:13;6.90;;;4.37;;
50585;SDS011;36542;51.700;8.846;2024-03-17T03:45:39;8.47;;;4.87;;
50585;SDS011;36542;51.700;8.846;2024-03-17T03:48:05;6.93;;;4.77;;
50585;SDS011;36542;51.700;8.846;2024-03-17T03:50:33;11.27;;;5.87;;
50585;SDS011;36542;51.700;8.846;2024-03-17T03:52:59;11.73;;;5.77;;
50585;SDS011;36542;51.700;8.846;2024-03-17T03:55:25;11.30;;;6.20;;
50585;SDS011;36542;51.700;8.846;2024-03-17T03:57:51;12.67;;;6.13;;
50585;SDS011;36542;51.700;8.846;2024-03-17T04:00:20;10.63;;;5.73;;
50585;SDS011;36542;51.700;8.846;2024-03-17T04:02:47;10.80;;;5.77;;
50585;SDS011;36542;51.700;8.846;2024-03-17T04:05:14;8.70;;;5.53;;
50585;SDS011;36542;51.700;8.846;2024-03-17T04:07:39;7.67;;;5.20;;
50585;SDS011;36542;51.700;8.846;2024-03-17T04:10:07;9.50;;;5.43;;
50585;SDS011;36542;51.700;8.846;2024-03-17T04:12:34;7.77;;;4.70;;
50585;SDS011;36542;51.700;8.846;2024-03-17T04:14:59;8.83;;;5.53;;
50585;SDS011;36542;51.700;8.846;2024-03-17T04:17:26;12.83;;;5.17;;
50585;SDS011;36542;51.700;8.846;2024-03-17T04:19:52;9.90;;;5.60;;
50585;SDS011;36542;51.700;8.846;2024-03-17T04:22:19;9.50;;;5.57;;
50585;SDS011;36542;51.700;8.846;2024-03-17T04:24:46;8.37;;;5.50;;
50585;SDS011;36542;51.700;8.846;2024-03-17T04:27:12;9.63;;;5.50;;
50585;SDS011;36542;51.700;8.846;2024-03-17T04:29:38;9.47;;;5.60;;
50585;SDS011;36542;51.700;8.846;2024-03-17T04:32:05;11.63;;;5.33;;
50585;SDS011;36542;51.700;8.846;2024-03-17T04:34:31;8.57;;;5.73;;
50585;SDS011;36542;51.700;8.846;2024-03-17T04:36:57;11.60;;;5.63;;
50585;SDS011;36542;51.700;8.846;2024-03-17T04:39:23;14.93;;;5.80;;
50585;SDS011;36542;51.700;8.846;2024-03-17T04:41:50;10.57;;;5.93;;
50585;SDS011;36542;51.700;8.846;2024-03-17T04:44:16;8.63;;;5.67;;
50585;SDS011;36542;51.700;8.846;2024-03-17T04:46:42;12.97;;;6.00;;
50585;SDS011;36542;51.700;8.846;2024-03-17T04:49:08;12.27;;;6.33;;
50585;SDS011;36542;51.700;8.846;2024-03-17T04:51:34;9.80;;;6.00;;
50585;SDS011;36542;51.700;8.846;2024-03-17T04:54:00;10.37;;;6.57;;
50585;SDS011;36542;51.700;8.846;2024-03-17T04:56:28;12.40;;;6.43;;
50585;SDS011;36542;51.700;8.846;2024-03-17T04:58:54;14.40;;;6.53;;
50585;SDS011;36542;51.700;8.846;2024-03-17T05:01:20;8.97;;;5.50;;
50585;SDS011;36542;51.700;8.846;2024-03-17T05:03:46;9.77;;;5.80;;
50585;SDS011;36542;51.700;8.846;2024-03-17T05:06:12;8.90;;;5.90;;
50585;SDS011;36542;51.700;8.846;2024-03-17T05:08:37;12.93;;;5.53;;
50585;SDS011;36542;51.700;8.846;2024-03-17T05:11:04;11.97;;;5.43;;
50585;SDS011;36542;51.700;8.846;2024-03-17T05:13:34;9.60;;;6.00;;
50585;SDS011;36542;51.700;8.846;2024-03-17T05:16:00;12.50;;;7.00;;
50585;SDS011;36542;51.700;8.846;2024-03-17T05:18:26;8.47;;;5.53;;
50585;SDS011;36542;51.700;8.846;2024-03-17T05:21:02;12.90;;;6.33;;
50585;SDS011;36542;51.700;8.846;2024-03-17T05:23:29;11.97;;;6.67;;
50585;SDS011;36542;51.700;8.846;2024-03-17T05:25:56;13.27;;;6.20;;
50585;SDS011;36542;51.700;8.846;2024-03-17T05:28:23;9.10;;;6.60;;
50585;SDS011;36542;51.700;8.846;2024-03-17T05:30:49;8.30;;;6.27;;
50585;SDS011;36542;51.700;8.846;2024-03-17T05:33:21;11.37;;;6.57;;
50585;SDS011;36542;51.700;8.846;2024-03-17T05:35:50;10.83;;;5.97;;
50585;SDS011;36542;51.700;8.846;2024-03-17T05:38:18;8.20;;;5.60;;
50585;SDS011;36542;51.700;8.846;2024-03-17T05:40:51;13.37;;;6.53;;
50585;SDS011;36542;51.700;8.846;2024-03-17T05:43:27;14.53;;;6.13;;
50585;SDS011;36542;51.700;8.846;2024-03-17T05:45:56;11.60;;;6.40;;
50585;SDS011;36542;51.700;8.846;2024-03-17T05:48:23;13.10;;;6.00;;
50585;SDS011;36542;51.700;8.846;2024-03-17T05:50:49;10.30;;;7.00;;
50585;SDS011;36542;51.700;8.846;2024-03-17T05:53:16;11.43;;;6.50;;
50585;SDS011;36542;51.700;8.846;2024-03-17T05:55:45;15.53;;;7.03;;
50585;SDS011;36542;51.700;8.846;2024-03-17T05:58:11;13.07;;;6.87;;
50585;SDS011;36542;51.700;8.846;2024-03-17T06:00:38;11.47;;;7.03;;
50585;SDS011;36542;51.700;8.846;2024-03-17T06:03:04;9.93;;;6.53;;
50585;SDS011;36542;51.700;8.846;2024-03-17T06:05:31;12.27;;;6.57;;
50585;SDS011;36542;51.700;8.846;2024-03-17T06:07:58;15.80;;;6.90;;
50585;SDS011;36542;51.700;8.846;2024-03-17T06:10:24;12.97;;;6.53;;
50585;SDS011;36542;51.700;8.846;2024-03-17T06:12:49;9.37;;;5.93;;
50585;SDS011;36542;51.700;8.846;2024-03-17T06:15:16;9.90;;;6.10;;
50585;SDS011;36542;51.700;8.846;2024-03-17T06:17:42;10.87;;;5.87;;
50585;SDS011;36542;51.700;8.846;2024-03-17T06:20:07;11.47;;;6.80;;
50585;SDS011;36542;51.700;8.846;2024-03-17T06:22:38;13.53;;;5.50;;
50585;SDS011;36542;51.700;8.846;2024-03-17T06:25:04;9.17;;;5.63;;
50585;SDS011;36542;51.700;8.846;2024-03-17T06:27:31;8.93;;;5.70;;
50585;SDS011;36542;51.700;8.846;2024-03-17T06:29:59;9.17;;;6.10;;
50585;SDS011;36542;51.700;8.846;2024-03-17T06:32:28;13.30;;;5.70;;
50585;SDS011;36542;51.700;8.846;2024-03-17T06:34:55;9.90;;;6.50;;
50585;SDS011;36542;51.700;8.846;2024-03-17T06:37:21;9.97;;;6.40;;
50585;SDS011;36542;51.700;8.846;2024-03-17T06:39:48;9.37;;;5.87;;
50585;SDS011;36542;51.700;8.846;2024-03-17T06:42:13;9.47;;;6.50;;
50585;SDS011;36542;51.700;8.846;2024-03-17T06:44:39;8.63;;;5.87;;
50585;SDS011;36542;51.700;8.846;2024-03-17T06:47:05;11.23;;;6.83;;
50585;SDS011;36542;51.700;8.846;2024-03-17T06:49:30;10.40;;;5.87;;
50585;SDS011;36542;51.700;8.846;2024-03-17T06:51:56;8.60;;;5.90;;
50585;SDS011;36542;51.700;8.846;2024-03-17T06:54:21;11.80;;;6.30;;
50585;SDS011;36542;51.700;8.846;2024-03-17T06:56:47;8.17;;;5.53;;
50585;SDS011;36542;51.700;8.846;2024-03-17T06:59:13;11.07;;;6.13;;
50585;SDS011;36542;51.700;8.846;2024-03-17T07:01:39;7.67;;;5.87;;
50585;SDS011;36542;51.700;8.846;2024-03-17T07:04:04;10.33;;;6.43;;
50585;SDS011;36542;51.700;8.846;2024-03-17T07:06:30;8.60;;;6.07;;
50585;SDS011;36542;51.700;8.846;2024-03-17T07:08:56;12.23;;;6.90;;
50585;SDS011;36542;51.700;8.846;2024-03-17T07:11:21;10.83;;;7.13;;
50585;SDS011;36542;51.700;8.846;2024-03-17T07:13:49;11.00;;;7.37;;
50585;SDS011;36542;51.700;8.846;2024-03-17T07:16:17;13.07;;;7.63;;
50585;SDS011;36542;51.700;8.846;2024-03-17T07:18:43;8.57;;;6.43;;
50585;SDS011;36542;51.700;8.846;2024-03-17T07:21:09;11.73;;;6.77;;
50585;SDS011;36542;51.700;8.846;2024-03-17T07:23:35;8.93;;;5.70;;
50585;SDS011;36542;51.700;8.846;2024-03-17T07:26:02;11.23;;;6.23;;
50585;SDS011;36542;51.700;8.846;2024-03-17T07:28:30;8.87;;;5.77;;
50585;SDS011;36542;51.700;8.846;2024-03-17T07:30:57;8.97;;;6.80;;
50585;SDS011;36542;51.700;8.846;2024-03-17T07:33:23;12.00;;;6.20;;
50585;SDS011;36542;51.700;8.846;2024-03-17T07:35:50;11.23;;;7.43;;
50585;SDS011;36542;51.700;8.846;2024-03-17T07:38:17;10.73;;;7.60;;
50585;SDS011;36542;51.700;8.846;2024-03-17T07:40:43;12.83;;;8.27;;
50585;SDS011;36542;51.700;8.846;2024-03-17T07:43:09;10.33;;;7.80;;
50585;SDS011;36542;51.700;8.846;2024-03-17T07:45:35;9.97;;;7.57;;
50585;SDS011;36542;51.700;8.846;2024-03-17T07:48:01;12.97;;;7.83;;
50585;SDS011;36542;51.700;8.846;2024-03-17T07:50:26;11.53;;;7.57;;
50585;SDS011;36542;51.700;8.846;2024-03-17T07:52:52;10.90;;;8.00;;
50585;SDS011;36542;51.700;8.846;2024-03-17T07:55:17;12.07;;;7.80;;
50585;SDS011;36542;51.700;8.846;2024-03-17T07:57:43;12.10;;;8.27;;
50585;SDS011;36542;51.700;8.846;2024-03-17T08:00:10;14.27;;;8.60;;
50585;SDS011;36542;51.700;8.846;2024-03-17T08:02:46;12.13;;;8.47;;
50585;SDS011;36542;51.700;8.846;2024-03-17T08:05:12;11.77;;;8.57;;
50585;SDS011;36542;51.700;8.846;2024-03-17T08:07:38;12.97;;;8.83;;
50585;SDS011;36542;51.700;8.846;2024-03-17T08:10:04;10.50;;;8.27;;
50585;SDS011;36542;51.700;8.846;2024-03-17T08:12:30;12.90;;;9.57;;
50585;SDS011;36542;51.700;8.846;2024-03-17T08:14:56;12.33;;;8.70;;
50585;SDS011;36542;51.700;8.846;2024-03-17T08:17:21;14.57;;;9.88;;
50585;SDS011;36542;51.700;8.846;2024-03-17T08:19:47;14.23;;;9.85;;
50585;SDS011;36542;51.700;8.846;2024-03-17T08:22:13;11.98;;;9.10;;
50585;SDS011;36542;51.700;8.846;2024-03-17T08:24:39;12.20;;;8.77;;
50585;SDS011;36542;51.700;8.846;2024-03-17T08:27:05;12.82;;;8.45;;
50585;SDS011;36542;51.700;8.846;2024-03-17T08:29:31;12.52;;;8.63;;
50585;SDS011;36542;51.700;8.846;2024-03-17T08:31:58;8.63;;;7.35;;
50585;SDS011;36542;51.700;8.846;2024-03-17T08:34:24;7.68;;;6.60;;
50585;SDS011;36542;51.700;8.846;2024-03-17T08:36:49;10.20;;;6.07;;
50585;SDS011;36542;51.700;8.846;2024-03-17T08:39:15;8.57;;;6.90;;
50585;SDS011;36542;51.700;8.846;2024-03-17T08:41:41;11.87;;;8.40;;
50585;SDS011;36542;51.700;8.846;2024-03-17T08:44:09;11.33;;;7.70;;
50585;SDS011;36542;51.700;8.846;2024-03-17T08:46:35;10.77;;;7.60;;
50585;SDS011;36542;51.700;8.846;2024-03-17T08:49:00;12.33;;;8.67;;
50585;SDS011;36542;51.700;8.846;2024-03-17T08:51:26;21.63;;;15.50;;
50585;SDS011;36542;51.700;8.846;2024-03-17T08:53:52;24.20;;;15.77;;
50585;SDS011;36542;51.700;8.846;2024-03-17T08:56:18;16.43;;;9.83;;
50585;SDS011;36542;51.700;8.846;2024-03-17T08:58:45;39.43;;;21.37;;
50585;SDS011;36542;51.700;8.846;2024-03-17T09:01:11;26.50;;;16.87;;
50585;SDS011;36542;51.700;8.846;2024-03-17T09:03:39;15.97;;;10.87;;
50585;SDS011;36542;51.700;8.846;2024-03-17T09:06:13;13.70;;;10.23;;
50585;SDS011;36542;51.700;8.846;2024-03-17T09:08:40;13.60;;;8.03;;
50585;SDS011;36542;51.700;8.846;2024-03-17T09:11:11;10.20;;;7.87;;
50585;SDS011;36542;51.700;8.846;2024-03-17T09:13:38;12.60;;;8.05;;
50585;SDS011;36542;51.700;8.846;2024-03-17T09:16:03;10.95;;;8.55;;
50585;SDS011;36542;51.700;8.846;2024-03-17T09:18:30;11.55;;;8.23;;
50585;SDS011;36542;51.700;8.846;2024-03-17T09:21:00;10.70;;;9.10;;
50585;SDS011;36542;51.700;8.846;2024-03-17T09:23:27;11.50;;;8.98;;
50585;SDS011;36542;51.700;8.846;2024-03-17T09:25:58;11.27;;;8.40;;
50585;SDS011;36542;51.700;8.846;2024-03-17T09:28:24;11.73;;;9.77;;
50585;SDS011;36542;51.700;8.846;2024-03-17T09:30:50;11.30;;;9.00;;
50585;SDS011;36542;51.700;8.846;2024-03-17T09:33:17;13.27;;;8.35;;
50585;SDS011;36542;51.700;8.846;2024-03-17T09:38:20;12.45;;;9.95;;
50585;SDS011;36542;51.700;8.846;2024-03-17T09:40:46;12.87;;;9.40;;
50585;SDS011;36542;51.700;8.846;2024-03-17T09:43:14;13.77;;;10.33;;
50585;SDS011;36542;51.700;8.846;2024-03-17T09:45:40;14.20;;;10.23;;
50585;SDS011;36542;51.700;8.846;2024-03-17T09:48:06;16.30;;;11.07;;
50585;SDS011;36542;51.700;8.846;2024-03-17T09:50:32;14.07;;;9.90;;
50585;SDS011;36542;51.700;8.846;2024-03-17T09:52:59;13.63;;;9.70;;
50585;SDS011;36542;51.700;8.846;2024-03-17T09:55:26;13.97;;;10.20;;
50585;SDS011;36542;51.700;8.846;2024-03-17T09:57:52;16.30;;;10.23;;
50585;SDS011;36542;51.700;8.846;2024-03-17T10:00:18;12.80;;;10.20;;
50585;SDS011;36542;51.700;8.846;2024-03-17T10:02:44;14.07;;;9.57;;
50585;SDS011;36542;51.700;8.846;2024-03-17T10:05:24;13.77;;;9.43;;
50585;SDS011;36542;51.700;8.846;2024-03-17T10:07:50;13.10;;;9.20;;
50585;SDS011;36542;51.700;8.846;2024-03-17T10:10:17;15.10;;;9.70;;
50585;SDS011;36542;51.700;8.846;2024-03-17T10:12:51;15.47;;;9.93;;
50585;SDS011;36542;51.700;8.846;2024-03-17T10:15:18;13.17;;;9.33;;
50585;SDS011;36542;51.700;8.846;2024-03-17T10:17:45;11.93;;;9.07;;
50585;SDS011;36542;51.700;8.846;2024-03-17T10:22:59;11.67;;;9.67;;
50585;SDS011;36542;51.700;8.846;2024-03-17T10:25:31;13.83;;;9.83;;
50585;SDS011;36542;51.700;8.846;2024-03-17T10:27:57;10.90;;;9.27;;
50585;SDS011;36542;51.700;8.846;2024-03-17T10:30:24;14.23;;;10.60;;
50585;SDS011;36542;51.700;8.846;2024-03-17T10:32:55;12.17;;;9.63;;
50585;SDS011;36542;51.700;8.846;2024-03-17T10:35:32;11.63;;;9.80;;
50585;SDS011;36542;51.700;8.846;2024-03-17T10:38:06;12.33;;;9.13;;
50585;SDS011;36542;51.700;8.846;2024-03-17T10:40:34;13.67;;;8.97;;
50585;SDS011;36542;51.700;8.846;2024-03-17T10:43:03;11.20;;;8.90;;
50585;SDS011;36542;51.700;8.846;2024-03-17T10:45:29;13.83;;;8.93;;
50585;SDS011;36542;51.700;8.846;2024-03-17T10:48:03;11.33;;;8.37;;
50585;SDS011;36542;51.700;8.846;2024-03-17T10:50:33;10.07;;;8.33;;
50585;SDS011;36542;51.700;8.846;2024-03-17T10:53:03;11.60;;;9.17;;
50585;SDS011;36542;51.700;8.846;2024-03-17T10:55:45;10.10;;;9.00;;
50585;SDS011;36542;51.700;8.846;2024-03-17T10:58:34;12.57;;;8.87;;
50585;SDS011;36542;51.700;8.846;2024-03-17T11:01:06;11.23;;;8.90;;
50585;SDS011;36542;51.700;8.846;2024-03-17T11:03:37;11.40;;;8.67;;
50585;SDS011;36542;51.700;8.846;2024-03-17T11:06:04;12.97;;;9.87;;
50585;SDS011;36542;51.700;8.846;2024-03-17T11:08:31;12.60;;;9.30;;
50585;SDS011;36542;51.700;8.846;2024-03-17T11:10:59;10.17;;;7.83;;
50585;SDS011;36542;51.700;8.846;2024-03-17T11:13:28;12.17;;;9.30;;
50585;SDS011;36542;51.700;8.846;2024-03-17T11:15:56;10.27;;;7.83;;
50585;SDS011;36542;51.700;8.846;2024-03-17T11:18:31;11.03;;;8.20;;
50585;SDS011;36542;51.700;8.846;2024-03-17T11:23:54;12.87;;;9.07;;
50585;SDS011;36542;51.700;8.846;2024-03-17T11:26:28;11.83;;;8.77;;
50585;SDS011;36542;51.700;8.846;2024-03-17T11:28:55;12.97;;;9.80;;
50585;SDS011;36542;51.700;8.846;2024-03-17T11:34:31;13.47;;;9.03;;
50585;SDS011;36542;51.700;8.846;2024-03-17T11:36:58;13.37;;;9.40;;
50585;SDS011;36542;51.700;8.846;2024-03-17T11:42:21;11.70;;;8.67;;
50585;SDS011;36542;51.700;8.846;2024-03-17T11:45:06;9.63;;;8.27;;
50585;SDS011;36542;51.700;8.846;2024-03-17T11:47:41;10.30;;;8.47;;
50585;SDS011;36542;51.700;8.846;2024-03-17T11:50:08;10.13;;;8.20;;
50585;SDS011;36542;51.700;8.846;2024-03-17T11:52:35;9.17;;;8.27;;
50585;SDS011;36542;51.700;8.846;2024-03-17T11:55:02;11.07;;;9.00;;
50585;SDS011;36542;51.700;8.846;2024-03-17T11:57:27;9.90;;;8.27;;
50585;SDS011;36542;51.700;8.846;2024-03-17T11:59:53;9.93;;;8.53;;
50585;SDS011;36542;51.700;8.846;2024-03-17T12:02:24;10.07;;;7.70;;
50585;SDS011;36542;51.700;8.846;2024-03-17T12:04:52;14.40;;;8.70;;
50585;SDS011;36542;51.700;8.846;2024-03-17T12:07:19;9.70;;;7.53;;
50585;SDS011;36542;51.700;8.846;2024-03-17T12:09:48;10.90;;;8.23;;
50585;SDS011;36542;51.700;8.846;2024-03-17T12:12:18;10.63;;;7.93;;
50585;SDS011;36542;51.700;8.846;2024-03-17T12:14:48;12.47;;;8.93;;
50585;SDS011;36542;51.700;8.846;2024-03-17T12:17:19;11.33;;;8.97;;
50585;SDS011;36542;51.700;8.846;2024-03-17T12:19:46;10.10;;;7.83;;
50585;SDS011;36542;51.700;8.846;2024-03-17T12:22:15;10.33;;;6.97;;
50585;SDS011;36542;51.700;8.846;2024-03-17T12:24:48;10.00;;;7.43;;
50585;SDS011;36542;51.700;8.846;2024-03-17T12:27:18;9.67;;;6.10;;
50585;SDS011;36542;51.700;8.846;2024-03-17T12:29:48;7.03;;;5.73;;
50585;SDS011;36542;51.700;8.846;2024-03-17T12:32:19;9.27;;;6.67;;
50585;SDS011;36542;51.700;8.846;2024-03-17T12:34:52;8.50;;;6.67;;
50585;SDS011;36542;51.700;8.846;2024-03-17T12:37:19;9.80;;;6.80;;
50585;SDS011;36542;51.700;8.846;2024-03-17T12:39:46;9.00;;;6.60;;
50585;SDS011;36542;51.700;8.846;2024-03-17T12:42:15;9.80;;;7.33;;
50585;SDS011;36542;51.700;8.846;2024-03-17T12:44:54;9.77;;;6.87;;
50585;SDS011;36542;51.700;8.846;2024-03-17T12:47:21;9.23;;;6.37;;
50585;SDS011;36542;51.700;8.846;2024-03-17T12:52:26;10.20;;;6.57;;
50585;SDS011;36542;51.700;8.846;2024-03-17T12:54:59;9.07;;;6.93;;
50585;SDS011;36542;51.700;8.846;2024-03-17T12:57:45;9.83;;;7.43;;
50585;SDS011;36542;51.700;8.846;2024-03-17T13:00:30;10.10;;;7.77;;
50585;SDS011;36542;51.700;8.846;2024-03-17T13:02:56;10.17;;;7.70;;
50585;SDS011;36542;51.700;8.846;2024-03-17T13:05:35;10.30;;;7.03;;
50585;SDS011;36542;51.700;8.846;2024-03-17T13:08:01;8.87;;;7.20;;
50585;SDS011;36542;51.700;8.846;2024-03-17T13:10:28;9.13;;;7.83;;
50585;SDS011;36542;51.700;8.846;2024-03-17T13:13:05;8.47;;;7.47;;
50585;SDS011;36542;51.700;8.846;2024-03-17T13:15:33;9.33;;;7.57;;
50585;SDS011;36542;51.700;8.846;2024-03-17T13:18:01;10.83;;;6.80;;
50585;SDS011;36542;51.700;8.846;2024-03-17T13:20:33;11.77;;;7.23;;
50585;SDS011;36542;51.700;8.846;2024-03-17T13:23:01;8.77;;;7.17;;
50585;SDS011;36542;51.700;8.846;2024-03-17T13:25:28;11.67;;;7.40;;
50585;SDS011;36542;51.700;8.846;2024-03-17T13:27:59;10.53;;;8.00;;
50585;SDS011;36542;51.700;8.846;2024-03-17T13:30:26;8.70;;;7.10;;
50585;SDS011;36542;51.700;8.846;2024-03-17T13:32:53;9.90;;;7.67;;
50585;SDS011;36542;51.700;8.846;2024-03-17T13:35:26;11.00;;;7.20;;
50585;SDS011;36542;51.700;8.846;2024-03-17T13:37:52;11.70;;;7.70;;
50585;SDS011;36542;51.700;8.846;2024-03-17T13:40:23;11.33;;;7.50;;
50585;SDS011;36542;51.700;8.846;2024-03-17T13:42:52;10.30;;;7.17;;
50585;SDS011;36542;51.700;8.846;2024-03-17T13:45:19;14.20;;;7.60;;
50585;SDS011;36542;51.700;8.846;2024-03-17T13:47:56;9.50;;;7.33;;
50585;SDS011;36542;51.700;8.846;2024-03-17T13:50:26;10.43;;;8.33;;
50585;SDS011;36542;51.700;8.846;2024-03-17T13:52:52;10.73;;;7.47;;
50585;SDS011;36542;51.700;8.846;2024-03-17T13:55:19;13.20;;;7.23;;
50585;SDS011;36542;51.700;8.846;2024-03-17T13:57:49;9.50;;;7.30;;
50585;SDS011;36542;51.700;8.846;2024-03-17T14:00:17;10.57;;;7.43;;
50585;SDS011;36542;51.700;8.846;2024-03-17T14:02:44;10.27;;;7.00;;
50585;SDS011;36542;51.700;8.846;2024-03-17T14:05:15;9.33;;;7.23;;
50585;SDS011;36542;51.700;8.846;2024-03-17T14:07:42;9.97;;;7.47;;
50585;SDS011;36542;51.700;8.846;2024-03-17T14:10:08;8.90;;;7.60;;
50585;SDS011;36542;51.700;8.846;2024-03-17T14:12:35;9.87;;;6.80;;
50585;SDS011;36542;51.700;8.846;2024-03-17T14:15:03;11.00;;;7.47;;
50585;SDS011;36542;51.700;8.846;2024-03-17T14:17:32;8.97;;;8.00;;
50585;SDS011;36542;51.700;8.846;2024-03-17T14:19:58;8.97;;;6.87;;
50585;SDS011;36542;51.700;8.846;2024-03-17T14:22:24;10.67;;;7.50;;
50585;SDS011;36542;51.700;8.846;2024-03-17T14:24:50;9.43;;;7.57;;
50585;SDS011;36542;51.700;8.846;2024-03-17T14:27:17;15.50;;;10.33;;
50585;SDS011;36542;51.700;8.846;2024-03-17T14:29:43;11.37;;;7.53;;
50585;SDS011;36542;51.700;8.846;2024-03-17T14:32:10;25.27;;;15.53;;
50585;SDS011;36542;51.700;8.846;2024-03-17T14:34:37;11.33;;;8.17;;
50585;SDS011;36542;51.700;8.846;2024-03-17T14:37:03;9.70;;;7.87;;
50585;SDS011;36542;51.700;8.846;2024-03-17T14:39:29;13.47;;;11.10;;
50585;SDS011;36542;51.700;8.846;2024-03-17T14:41:56;13.60;;;9.30;;
50585;SDS011;36542;51.700;8.846;2024-03-17T14:44:22;10.87;;;7.17;;
50585;SDS011;36542;51.700;8.846;2024-03-17T14:46:49;13.47;;;8.37;;
50585;SDS011;36542;51.700;8.846;2024-03-17T14:49:17;36.23;;;22.03;;
50585;SDS011;36542;51.700;8.846;2024-03-17T14:51:43;48.23;;;28.97;;
50585;SDS011;36542;51.700;8.846;2024-03-17T14:54:09;14.93;;;9.33;;
50585;SDS011;36542;51.700;8.846;2024-03-17T14:56:35;14.20;;;9.47;;
50585;SDS011;36542;51.700;8.846;2024-03-17T14:59:01;10.93;;;7.30;;
50585;SDS011;36542;51.700;8.846;2024-03-17T15:01:27;15.63;;;9.43;;